CST,Max TemperatureF,Mean TemperatureF,Min TemperatureF,Max Dew PointF,MeanDew PointF,Min DewpointF,Max Humidity, Mean Humidity, Min Humidity, Max Sea Level PressureIn, Mean Sea Level PressureIn, Min Sea Level PressureIn, Max VisibilityMiles, Mean VisibilityMiles, Min VisibilityMiles, Max Wind SpeedMPH, Mean Wind SpeedMPH, Max Gust SpeedMPH,PrecipitationIn, CloudCover, Events, WindDirDegrees
2013-1-1,52,46,41,53,47,39,100,99,90,30.25,30.13,30.03,10,9,2,13,5,24,0.53,8,Rain,3
2013-1-2,42,40,38,41,38,36,100,90,79,30.33,30.28,30.24,10,10,7,6,3,,0.00,7,,6
2013-1-3,48,40,32,39,35,30,100,85,49,30.48,30.41,30.34,10,8,0,9,3,9,0.00,2,Fog,9
2013-1-4,49,42,35,40,35,28,100,81,44,30.57,30.47,30.40,10,10,7,9,1,,0.00,6,Rain,18
2013-1-5,45,42,38,45,42,38,100,99,93,30.44,30.38,30.32,10,8,2,6,1,,0.25,8,Rain,172
2013-1-6,56,44,32,48,38,31,100,88,39,30.39,30.35,30.30,10,6,0,8,1,,0.00,3,Fog,347
2013-1-7,54,41,28,40,34,29,100,84,41,30.43,30.33,30.23,10,9,5,7,1,,0.00,0,,83
2013-1-8,56,45,35,56,46,36,100,92,71,30.24,30.17,30.09,10,9,1,7,2,,0.11,7,Rain,92
2013-1-9,60,58,56,60,59,56,100,100,100,30.24,30.17,30.13,10,5,0,12,6,18,1.34,8,Fog-Rain,73
2013-1-10,65,61,57,64,62,57,100,97,84,30.19,30.05,29.97,10,9,2,16,9,23,1.07,7,Rain-Thunderstorm,171
2013-1-11,69,59,49,66,53,47,100,81,45,30.10,30.03,29.97,10,7,0,10,5,,0.00,4,Fog,176
2013-1-12,75,70,65,71,67,63,100,88,66,29.98,29.89,29.77,10,9,2,21,11,26,0.00,7,Rain-Thunderstorm,184
2013-1-13,71,54,38,71,47,34,100,97,83,30.25,30.05,29.76,10,9,2,16,10,23,1.70,8,Rain-Thunderstorm,352
2013-1-14,37,34,31,33,32,30,100,95,81,30.34,30.27,30.21,10,9,4,17,7,23,0.07,7,Snow-Thunderstorm,28
2013-1-15,32,31,30,32,31,30,100,100,98,30.23,30.17,30.10,10,6,2,0,0,,0.07,8,Snow,-1
2013-1-16,37,34,31,37,34,32,100,97,84,30.25,30.20,30.14,10,7,3,6,0,,0.00,8,,325
2013-1-17,57,44,31,38,31,24,100,70,37,30.53,30.35,30.23,10,10,4,15,3,18,0.00,0,,329
2013-1-18,56,42,29,37,30,22,100,73,26,30.61,30.51,30.41,10,10,5,7,2,,0.00,0,,118
2013-1-19,59,44,28,37,32,23,100,71,25,30.40,30.33,30.26,10,10,10,8,3,,0.00,0,,200
2013-1-20,67,50,32,46,38,32,100,75,31,30.31,30.24,30.18,10,10,7,7,1,,0.00,0,,186
2013-1-21,52,44,35,45,35,29,100,75,43,30.32,30.27,30.19,10,10,7,14,3,17,0.00,3,,41
2013-1-22,52,43,34,32,27,21,80,54,36,30.42,30.35,30.31,10,10,10,9,4,,0.00,5,,77
2013-1-23,72,53,34,52,42,32,100,71,37,30.37,30.31,30.24,10,10,10,12,3,16,0.00,2,,219
2013-1-24,59,54,48,60,54,48,100,99,84,30.33,30.27,30.21,10,4,0,9,5,,0.05,7,Fog-Rain,139
2013-1-25,69,58,46,63,53,44,100,92,65,30.26,30.18,30.13,10,8,0,15,5,20,0.00,8,Fog,232
2013-1-26,49,48,46,47,43,38,100,87,70,30.31,30.26,30.23,10,8,0,8,4,,0.00,8,Fog,65
2013-1-27,73,58,44,61,53,45,100,81,52,30.26,30.19,30.13,10,6,0,15,4,21,0.00,6,Fog,172
2013-1-28,74,68,63,66,63,59,100,86,60,30.21,30.14,30.08,10,10,7,16,10,21,0.00,7,,167
2013-1-29,75,66,56,72,65,56,100,89,67,30.07,29.84,29.62,10,10,5,24,12,31,0.43,7,Rain-Thunderstorm,176
2013-1-30,55,46,37,55,37,24,100,68,38,30.18,29.91,29.70,10,10,7,20,6,33,0.17,5,Rain-Thunderstorm,272
2013-1-31,62,46,30,31,26,17,100,52,18,30.31,30.24,30.18,10,10,10,12,6,18,0.00,0,,225